map of MRA home
MRA - Airport
Location
City:  Misrata, Libyan Arab Jamahiriya (Libya)
Near (Alt.):Misurata, Misratah
Name:Misrata International Airport
ICAO:HLMS
IATA:MRA

Details
Type:Airport (Aerodrome, Airfield)
Use:Military, International (customs port of entry)
Latitude:3219'31"N (32.325336)
Longitude:1503'39"E (15.060942)
Datum:WGS 1984
Elevation:60 ft (18 m)
Variation:2.95E (WMM2015 magnetic declination)
0.09 annual change
Runways:1
Longest:11140 × 150 ft (3395 × 45.5 m), paved

Time
Time Zone:UTC+2
Local Time:

Weather
TAF:HLMS 151700Z 1518/1618 VRB02KT 8000 NSC
BECMG 1520/1522 VRB02KT PROB40
TEMPO 1600/1606 3000 BR

Related Locations
Nearby:
Farthest:RAR: 11604 mi / 18674 km
Avarua [Rarotonga Intl], Rarotonga Island, CK

Find:

   beyond  
but within

Other Information
Maps:
NOTAMs:
Links:
Sources:

  
  • flag of Libyan Arab Jamahiriya (Libya)
  

Sectional Chart

Flight Planning
at skyvector.com

Satellite Image

Google Maps Satellite view

 

Copyright © 2004-2018 Karl L. Swartz. All rights reserved.
The Great Circle Mapper name and logo are trademarks of the Great Circle Mapper.
All other trademarks mentioned herein belong to their respective owners.
Please see credits for attibutions and further copyright information.

  Follow gcmap on Facebook Follow gcmap on Twitter Follow gcmap on Google+ GCmap on LinkedIn

hCard Microformat

Geo Microformat